Terminal Aerodrome Forecast
Issued by NWS Sterling, VA

Current Version | Previous Version | Graphics & Text | Print | Product List | Glossary On
Versions: 1 2 3 4 5 6 7 8 9 10 11 12 13 14 15 16 17 18 19 20 21 22 23 24 25 26 27
000
FTUS41 KLWX 061742
TAFDCA
TAF
KDCA 061742Z 0618/0718 18009KT P6SM BKN050
     FM061900 16010KT 5SM -SHRA VCTS BKN050CB
      TEMPO 0621/0624 2SM -TSRA
     FM070000 17006KT 6SM -SHRA VCTS BKN050CB
     FM070300 VRB05KT P6SM SCT050 BKN090
     FM071300 22007KT P6SM SCT040=

USA.gov is the U.S. government's official web portal to all federal, state and local government web resources and services.